Houtman — QS046Q — position and weather

sailwx.info

Track history (hours):
 
Tides and Currents Weather Stations Pressure Air Temp Water Temp Dewpoint Dewpoint Depression Visibility Wind Speed Wind Dir Waves Ship Positions

Houtman

Last reported at 2017-Nov-19 04:56 UTC. Time now 2017-Nov-19 18:17 UTC.
Position S 27°13' E 153°05'.

Length 15 m.

Type: Sailing vessel. MMSI: 503409200.

Date/timePositionNaut miles runAvg speedWind from/ knotsBaromVisibWave heightAir tempDewpointWater temp
2017-Nov-19 04:56S 27°13' E 153°05'2 3.7
2017-Nov-19 04:30S 27°11' E 153°05'2 4.7
2017-Nov-19 04:00S 27°11' E 153°08'3 5.6
2017-Nov-19 03:30S 27°14' E 153°08'4 7.8
2017-Nov-19 02:57S 27°12' E 153°12'1 2.9
2017-Nov-19 02:31S 27°12' E 153°11'2 4.1
2017-Nov-19 01:57S 27°10' E 153°09'3 6.9
2017-Nov-19 01:30S 27°11' E 153°06'0 1.0
2017-Nov-19 01:00S 27°11' E 153°06'1 2.9
2017-Nov-19 00:30S 27°13' E 153°05'0 0.0
2017-Nov-18 05:48S 27°13' E 153°05'2 5.0
2017-Nov-18 05:27S 27°11' E 153°06'2 4.7
2017-Nov-18 05:00S 27°09' E 153°05'1 1.6
2017-Nov-18 04:28S 27°09' E 153°04'1 3.2
2017-Nov-18 04:00S 27°10' E 153°05'1 1.2
2017-Nov-18 03:19S 27°11' E 153°06'1 2.8
2017-Nov-18 02:52S 27°12' E 153°06'  
2017-Nov-15 05:49S 27°13' E 153°05'2 4.6
2017-Nov-15 05:29S 27°11' E 153°06'3 5.3
2017-Nov-15 05:00S 27°09' E 153°04'3 5.3
2017-Nov-15 04:30S 27°08' E 153°07'2 3.0
2017-Nov-15 03:59S 27°10' E 153°07'2 3.5
2017-Nov-15 03:28S 27°11' E 153°06'1 1.3
2017-Nov-15 03:00S 27°12' E 153°06'  
2017-Nov-11 05:35S 27°13' E 153°05'0 0.1
2017-Nov-11 05:30S 27°13' E 153°05'2 3.4
2017-Nov-11 05:00S 27°11' E 153°05'2 4.2
2017-Nov-11 04:29S 27°09' E 153°05'2 4.8
2017-Nov-11 04:00S 27°08' E 153°07'3 6.5
2017-Nov-11 03:30S 27°11' E 153°06'1 1.4
2017-Nov-11 02:56S 27°12' E 153°06'  
Track history (hours):
 
Tides and Currents Weather Stations Pressure Air Temp Water Temp Dewpoint Dewpoint Depression Visibility Wind Speed Wind Dir Waves Ship Positions

Houtman

Last reported at 2017-Nov-19 04:56 UTC. Time now 2017-Nov-19 18:17 UTC.
Position S 27°13' E 153°05'.

Length 15 m.

Type: Sailing vessel. MMSI: 503409200.

Date/timePositionNaut miles runAvg speedWind from/ knotsBaromVisibWave heightAir tempDewpointWater temp
2017-Nov-19 04:56S 27°13' E 153°05'2 3.7
2017-Nov-19 04:30S 27°11' E 153°05'2 4.7
2017-Nov-19 04:00S 27°11' E 153°08'3 5.6
2017-Nov-19 03:30S 27°14' E 153°08'4 7.8
2017-Nov-19 02:57S 27°12' E 153°12'1 2.9
2017-Nov-19 02:31S 27°12' E 153°11'2 4.1
2017-Nov-19 01:57S 27°10' E 153°09'3 6.9
2017-Nov-19 01:30S 27°11' E 153°06'0 1.0
2017-Nov-19 01:00S 27°11' E 153°06'1 2.9
2017-Nov-19 00:30S 27°13' E 153°05'0 0.0
2017-Nov-18 05:48S 27°13' E 153°05'2 5.0
2017-Nov-18 05:27S 27°11' E 153°06'2 4.7
2017-Nov-18 05:00S 27°09' E 153°05'1 1.6
2017-Nov-18 04:28S 27°09' E 153°04'1 3.2
2017-Nov-18 04:00S 27°10' E 153°05'1 1.2
2017-Nov-18 03:19S 27°11' E 153°06'1 2.8
2017-Nov-18 02:52S 27°12' E 153°06'  
2017-Nov-15 05:49S 27°13' E 153°05'2 4.6
2017-Nov-15 05:29S 27°11' E 153°06'3 5.3
2017-Nov-15 05:00S 27°09' E 153°04'3 5.3
2017-Nov-15 04:30S 27°08' E 153°07'2 3.0
2017-Nov-15 03:59S 27°10' E 153°07'2 3.5
2017-Nov-15 03:28S 27°11' E 153°06'1 1.3
2017-Nov-15 03:00S 27°12' E 153°06'  
2017-Nov-11 05:35S 27°13' E 153°05'0 0.1
2017-Nov-11 05:30S 27°13' E 153°05'2 3.4
2017-Nov-11 05:00S 27°11' E 153°05'2 4.2
2017-Nov-11 04:29S 27°09' E 153°05'2 4.8
2017-Nov-11 04:00S 27°08' E 153°07'3 6.5
2017-Nov-11 03:30S 27°11' E 153°06'1 1.4
2017-Nov-11 02:56S 27°12' E 153°06'  

Dump ship's entire track history